createdAt,value
2022-10-04T00:01:49.067Z,81.90
2022-10-04T00:04:27.655Z,82.16
2022-10-04T00:07:01.034Z,82.25
2022-10-04T00:09:40.548Z,82.18
2022-10-04T00:12:20.222Z,82.13
2022-10-04T00:14:48.763Z,82.22
2022-10-04T00:17:24.081Z,81.98
2022-10-04T00:19:52.561Z,81.84
2022-10-04T00:22:30.883Z,81.36
2022-10-04T00:25:07.190Z,81.36
2022-10-04T00:27:36.599Z,81.04
2022-10-04T00:30:03.512Z,81.02
2022-10-04T00:32:37.041Z,80.95
2022-10-04T00:35:26.538Z,80.86
2022-10-04T00:37:57.285Z,81.62
2022-10-04T00:40:29.775Z,81.75
2022-10-04T00:43:17.483Z,81.38
2022-10-04T00:45:50.927Z,81.04
2022-10-04T00:48:39.915Z,80.76
2022-10-04T00:51:28.226Z,80.36
2022-10-04T00:54:08.476Z,80.77
2022-10-04T00:56:39.026Z,80.65
2022-10-04T00:59:19.449Z,80.71
2022-10-04T01:01:51.181Z,80.58
2022-10-04T01:04:32.977Z,80.72
2022-10-04T01:07:03.090Z,80.69
2022-10-04T01:09:35.365Z,80.46
2022-10-04T01:12:10.407Z,80.68
2022-10-04T01:15:08.328Z,80.69
2022-10-04T01:17:35.327Z,80.59
2022-10-04T01:20:22.279Z,80.46
2022-10-04T01:22:50.204Z,79.80
2022-10-04T01:25:42.849Z,79.85
2022-10-04T01:28:09.899Z,79.97
2022-10-04T01:30:37.382Z,80.25
2022-10-04T01:33:06.446Z,80.15
2022-10-04T01:35:36.913Z,80.57
2022-10-04T01:38:08.818Z,80.81
2022-10-04T01:40:46.166Z,81.14
2022-10-04T01:43:21.161Z,81.24
2022-10-04T01:45:58.017Z,81.31
2022-10-04T01:48:30.739Z,81.18
2022-10-04T01:51:04.255Z,80.99
2022-10-04T01:53:40.521Z,80.94
2022-10-04T01:56:14.670Z,81.24
2022-10-04T01:58:58.661Z,81.61
2022-10-04T02:01:40.595Z,82.33
2022-10-04T02:04:11.079Z,82.76
2022-10-04T02:06:42.405Z,83.16
2022-10-04T02:09:14.122Z,83.30
2022-10-04T02:11:43.958Z,83.51
2022-10-04T02:14:18.659Z,83.65
2022-10-04T02:16:50.276Z,83.65
2022-10-04T02:19:17.396Z,83.57
2022-10-04T02:21:46.202Z,83.42
2022-10-04T02:24:14.061Z,83.18
2022-10-04T02:26:40.937Z,82.80
2022-10-04T02:29:09.611Z,82.91
2022-10-04T02:31:57.931Z,83.13
2022-10-04T02:34:24.944Z,83.11
2022-10-04T02:36:52.060Z,83.13
2022-10-04T02:39:38.369Z,82.87
2022-10-04T02:42:26.836Z,82.58
2022-10-04T02:45:02.297Z,82.56
2022-10-04T02:47:49.640Z,82.33
2022-10-04T02:50:39.582Z,82.62
2022-10-04T02:53:12.327Z,82.55
2022-10-04T02:55:43.101Z,82.70
2022-10-04T02:58:14.782Z,82.58
2022-10-04T03:00:57.196Z,82.35
2022-10-04T03:03:31.320Z,82.76
2022-10-04T03:06:15.026Z,82.73
2022-10-04T03:08:57.609Z,82.64
2022-10-04T03:11:31.305Z,83.07
2022-10-04T03:14:00.498Z,82.84
2022-10-04T03:16:37.863Z,82.81
2022-10-04T03:19:07.086Z,83.33
2022-10-04T03:21:36.663Z,83.06
2022-10-04T03:24:05.857Z,83.23
2022-10-04T03:26:41.766Z,83.51
2022-10-04T03:29:11.924Z,83.56
2022-10-04T03:31:46.767Z,83.67
2022-10-04T03:34:16.905Z,83.84
2022-10-04T03:36:47.191Z,83.89
2022-10-04T03:39:22.096Z,84.10
2022-10-04T03:41:49.084Z,84.12
2022-10-04T03:44:18.477Z,84.16
2022-10-04T03:46:46.197Z,84.15
2022-10-04T03:49:29.975Z,83.98
2022-10-04T03:51:59.018Z,83.87
2022-10-04T03:54:27.525Z,84.11
2022-10-04T03:56:55.930Z,84.26
2022-10-04T03:59:26.089Z,84.16
2022-10-04T04:02:09.018Z,84.18
2022-10-04T04:05:05.258Z,83.70
2022-10-04T04:07:46.351Z,83.80
2022-10-04T04:10:21.342Z,83.47
2022-10-04T04:12:54.623Z,83.45
2022-10-04T04:15:22.091Z,83.22
2022-10-04T04:17:54.142Z,82.92
2022-10-04T04:20:28.979Z,82.71
2022-10-04T04:23:04.891Z,82.63
2022-10-04T04:25:37.559Z,82.27
2022-10-04T04:28:18.797Z,82.02
2022-10-04T04:30:49.811Z,82.01
2022-10-04T04:33:35.164Z,81.84
2022-10-04T04:36:07.333Z,81.86
2022-10-04T04:38:35.070Z,81.61
2022-10-04T04:41:10.739Z,81.17
2022-10-04T04:43:43.530Z,81.06
2022-10-04T04:46:28.087Z,81.14
2022-10-04T04:49:03.798Z,81.55
2022-10-04T04:51:32.785Z,81.66
2022-10-04T04:54:04.632Z,81.77
2022-10-04T04:56:34.779Z,82.01
2022-10-04T04:59:04.700Z,81.91
2022-10-04T05:01:41.475Z,81.61
2022-10-04T05:04:08.441Z,81.59
2022-10-04T05:06:39.460Z,81.52
2022-10-04T05:09:26.026Z,81.37
2022-10-04T05:12:01.417Z,81.52
2022-10-04T05:14:30.919Z,81.36
2022-10-04T05:17:02.140Z,81.16
2022-10-04T05:19:34.867Z,80.44
2022-10-04T05:22:16.548Z,80.34
2022-10-04T05:25:08.604Z,80.29
2022-10-04T05:27:44.756Z,79.95
2022-10-04T05:30:48.964Z,79.93
2022-10-04T05:33:57.738Z,80.12
2022-10-04T05:36:53.447Z,79.04
2022-10-04T05:39:37.349Z,78.93
2022-10-04T05:43:04.978Z,78.21
2022-10-04T05:45:43.485Z,77.79
2022-10-04T05:48:27.965Z,78.18
2022-10-04T07:51:15.293Z,70.91
2022-10-04T07:54:21.784Z,70.59
2022-10-04T07:57:35.649Z,71.17
2022-10-04T08:00:22.150Z,71.00
2022-10-04T08:03:14.884Z,71.11
2022-10-04T08:06:49.939Z,71.46
2022-10-04T08:10:08.422Z,71.25
2022-10-04T08:13:12.497Z,71.12
2022-10-04T08:15:47.426Z,70.63
2022-10-04T08:18:20.529Z,70.23
2022-10-04T08:21:15.712Z,70.88
2022-10-04T08:23:56.839Z,71.24
2022-10-04T08:26:49.804Z,71.70
2022-10-04T08:29:51.817Z,72.24
2022-10-04T08:32:37.609Z,72.53
2022-10-04T08:35:30.787Z,72.41
2022-10-04T08:38:26.873Z,73.19
2022-10-04T08:41:16.121Z,73.58
2022-10-04T08:43:59.312Z,73.09
2022-10-04T08:46:59.072Z,72.55
2022-10-04T08:49:46.494Z,72.78
2022-10-04T08:52:59.390Z,70.95
2022-10-04T08:55:49.192Z,72.13
2022-10-04T08:58:38.671Z,71.60
2022-10-04T09:01:44.261Z,69.07
2022-10-04T09:04:27.260Z,68.78
2022-10-04T09:07:16.876Z,68.67
2022-10-04T09:10:13.350Z,68.74
2022-10-04T09:13:05.902Z,67.32
2022-10-04T09:16:29.699Z,64.90
2022-10-04T09:19:50.110Z,65.48
2022-10-04T09:23:08.909Z,63.83
2022-10-04T09:26:02.092Z,62.27
2022-10-04T09:29:20.672Z,62.92
2022-10-04T09:32:08.091Z,62.33
2022-10-04T09:35:08.689Z,60.96
2022-10-04T09:38:03.478Z,58.61
2022-10-04T09:41:16.519Z,57.37
2022-10-04T09:43:46.867Z,57.52
2022-10-04T09:46:42.011Z,56.89
2022-10-04T09:49:37.562Z,57.44
2022-10-04T09:52:48.646Z,58.68
2022-10-04T09:55:30.784Z,58.92
2022-10-04T09:58:17.342Z,59.28
2022-10-04T10:01:08.426Z,60.69
2022-10-04T10:04:09.600Z,62.48
2022-10-04T10:06:57.940Z,62.68
2022-10-04T10:10:28.076Z,62.66
2022-10-04T10:13:19.738Z,64.73
2022-10-04T10:16:02.897Z,64.74
2022-10-04T10:18:46.141Z,65.17
2022-10-04T10:21:32.285Z,66.07
2022-10-04T10:24:21.009Z,66.69
2022-10-04T10:27:39.099Z,67.53
2022-10-04T10:30:33.738Z,68.76
2022-10-04T10:33:26.712Z,69.90
2022-10-04T10:36:08.388Z,69.68
2022-10-04T10:38:45.972Z,69.57
2022-10-04T10:41:38.434Z,69.46
2022-10-04T10:44:23.611Z,70.00
2022-10-04T10:47:08.097Z,69.99
2022-10-04T10:49:44.225Z,70.61
2022-10-04T10:52:44.429Z,69.78
2022-10-04T10:55:15.255Z,70.72
2022-10-04T10:58:16.097Z,68.90
2022-10-04T11:00:58.929Z,70.88
2022-10-04T11:03:57.265Z,69.55
2022-10-04T11:06:42.296Z,69.56
2022-10-04T11:09:30.362Z,69.49
2022-10-04T11:12:02.022Z,68.52
2022-10-04T11:15:08.881Z,68.73
2022-10-04T11:17:56.011Z,68.64
2022-10-04T11:20:51.485Z,66.98
2022-10-04T11:23:40.030Z,67.39
2022-10-04T11:26:26.403Z,67.06
2022-10-04T11:29:12.224Z,64.31
2022-10-04T11:32:20.509Z,65.97
2022-10-04T11:35:28.945Z,65.66
2022-10-04T11:38:06.660Z,65.14
2022-10-04T11:40:39.886Z,63.94
2022-10-04T11:43:31.562Z,65.11
2022-10-04T11:46:35.594Z,65.25
2022-10-04T11:49:11.660Z,65.09
2022-10-04T11:52:07.581Z,64.42
2022-10-04T11:55:36.869Z,63.22
2022-10-04T11:58:15.608Z,63.08
2022-10-04T12:01:14.948Z,62.26
2022-10-04T12:04:12.430Z,62.04
2022-10-04T12:06:42.790Z,63.27
2022-10-04T12:09:20.198Z,63.53
2022-10-04T12:12:37.816Z,62.76
2022-10-04T12:15:40.562Z,62.62
2022-10-04T12:18:46.934Z,62.45
2022-10-04T12:21:51.874Z,62.40
2022-10-04T12:24:21.324Z,61.53
2022-10-04T12:27:07.310Z,60.46
2022-10-04T12:30:04.213Z,59.14
2022-10-04T12:32:39.567Z,61.66
2022-10-04T12:35:44.296Z,61.24
2022-10-04T12:38:32.192Z,61.56
2022-10-04T12:41:24.520Z,61.29
2022-10-04T12:44:12.319Z,60.41
2022-10-04T12:46:57.773Z,59.59
2022-10-04T12:49:46.138Z,59.58
2022-10-04T12:52:20.724Z,59.98
2022-10-04T12:55:17.294Z,58.81
2022-10-04T12:58:22.292Z,59.23
2022-10-04T13:00:53.105Z,60.28
2022-10-04T13:03:59.710Z,59.92
2022-10-04T13:06:43.818Z,59.19
2022-10-04T13:09:20.204Z,59.78
2022-10-04T13:12:02.897Z,59.79
2022-10-04T13:15:03.925Z,59.25
2022-10-04T13:17:50.863Z,58.27
2022-10-04T13:20:45.357Z,58.83
2022-10-04T13:23:24.617Z,59.49
2022-10-04T13:25:58.778Z,59.42
2022-10-04T13:28:48.092Z,58.98
2022-10-04T13:31:34.696Z,59.34
2022-10-04T13:34:11.423Z,59.61
2022-10-04T13:36:45.705Z,59.49
2022-10-04T13:39:27.954Z,60.39
2022-10-04T13:42:34.157Z,61.35
2022-10-04T13:45:17.929Z,61.33
2022-10-04T13:47:59.979Z,61.11
2022-10-04T13:50:32.444Z,61.50
2022-10-04T13:53:36.818Z,61.88
2022-10-04T13:56:34.051Z,61.56
2022-10-04T13:59:08.879Z,61.11
2022-10-04T14:01:41.781Z,61.03
2022-10-04T14:04:30.492Z,61.15
2022-10-04T14:07:17.614Z,61.03
2022-10-04T14:09:53.549Z,61.08
2022-10-04T14:12:44.644Z,60.79
2022-10-04T14:15:59.561Z,61.43
2022-10-04T14:18:35.583Z,61.71
2022-10-04T14:21:25.891Z,61.75
2022-10-04T14:23:59.926Z,62.01
2022-10-04T14:26:51.562Z,62.30
2022-10-04T14:29:45.893Z,62.56
2022-10-04T14:32:35.147Z,62.95
2022-10-04T14:35:11.031Z,63.20
2022-10-04T14:41:06.326Z,63.91
2022-10-04T14:43:58.386Z,64.34
2022-10-04T14:46:31.460Z,65.10
2022-10-04T14:49:27.263Z,65.49
2022-10-04T14:52:35.968Z,65.92
2022-10-04T14:55:32.958Z,66.41
2022-10-04T14:58:16.231Z,66.69
2022-10-04T15:01:18.269Z,66.62
2022-10-04T15:04:16.297Z,66.98
2022-10-04T15:07:01.550Z,67.46
2022-10-04T15:09:56.554Z,67.25
2022-10-04T15:13:14.440Z,67.61
2022-10-04T15:15:50.227Z,68.46
2022-10-04T15:18:30.633Z,68.54
2022-10-04T15:21:33.335Z,68.68
2022-10-04T15:24:13.378Z,69.43
2022-10-04T15:26:49.431Z,69.46
2022-10-04T15:29:45.400Z,69.95
2022-10-04T15:32:46.583Z,70.46
2022-10-04T15:35:34.585Z,70.67
2022-10-04T15:38:24.591Z,70.94
2022-10-04T15:41:29.146Z,71.46
2022-10-04T15:44:14.748Z,71.93
2022-10-04T15:46:56.707Z,72.19
2022-10-04T15:49:41.814Z,72.38
2022-10-04T15:52:44.209Z,73.51
2022-10-04T15:56:02.051Z,73.92
2022-10-04T15:58:53.373Z,74.38
2022-10-04T16:01:30.056Z,74.49
2022-10-04T16:04:15.809Z,74.42
2022-10-04T16:06:55.205Z,74.57
2022-10-04T16:09:24.586Z,74.88
2022-10-04T16:12:20.258Z,75.21
2022-10-04T16:14:47.400Z,75.58
2022-10-04T16:17:45.986Z,75.73
2022-10-04T16:20:54.742Z,75.79
2022-10-04T16:23:26.001Z,76.11
2022-10-04T16:26:02.829Z,76.57
2022-10-04T16:28:41.661Z,76.57
2022-10-04T16:31:20.101Z,77.31
2022-10-04T16:34:26.235Z,77.34
2022-10-04T16:37:16.222Z,77.95
2022-10-04T16:40:01.189Z,77.97
2022-10-04T16:42:53.467Z,78.24
2022-10-04T16:46:05.994Z,77.99
2022-10-04T16:48:37.106Z,78.35
2022-10-04T16:51:15.830Z,78.31
2022-10-04T16:54:00.835Z,78.36
2022-10-04T16:56:50.240Z,78.44
2022-10-04T16:59:37.595Z,78.84
2022-10-04T17:02:23.242Z,79.45
2022-10-04T17:05:22.137Z,79.31
2022-10-04T17:08:16.470Z,79.46
2022-10-04T17:10:49.217Z,79.24
2022-10-04T17:13:34.196Z,79.37
2022-10-04T17:16:07.066Z,79.37
2022-10-04T17:18:51.247Z,79.29
2022-10-04T17:21:45.634Z,79.91
2022-10-04T17:24:24.221Z,80.15
2022-10-04T17:27:29.180Z,80.28
2022-10-04T17:30:16.500Z,79.98
2022-10-04T17:32:46.202Z,79.98
2022-10-04T17:35:27.906Z,79.77
2022-10-04T17:38:05.632Z,79.96
2022-10-04T17:41:13.891Z,79.99
2022-10-04T17:43:45.977Z,80.05
2022-10-04T17:46:23.722Z,80.25
2022-10-04T17:49:20.049Z,80.45
2022-10-04T17:52:11.866Z,80.07
2022-10-04T17:55:01.137Z,80.19
2022-10-04T17:57:42.324Z,80.40
2022-10-04T18:00:15.673Z,80.10
2022-10-04T18:02:54.684Z,79.75
2022-10-04T18:05:28.459Z,79.69
2022-10-04T18:08:05.649Z,79.82
2022-10-04T18:10:38.120Z,80.01
2022-10-04T18:13:25.078Z,79.70
2022-10-04T18:15:56.793Z,79.54
2022-10-04T18:18:29.441Z,79.50
2022-10-04T18:20:56.132Z,79.16
2022-10-04T18:23:28.376Z,78.95
2022-10-04T18:26:02.545Z,78.66
2022-10-04T18:28:32.095Z,78.59
2022-10-04T18:31:12.816Z,78.31
2022-10-04T18:33:39.582Z,78.29
2022-10-04T18:36:21.813Z,78.32
2022-10-04T18:39:13.791Z,78.73
2022-10-04T18:42:15.744Z,78.88
2022-10-04T18:44:50.812Z,79.04
2022-10-04T18:47:37.518Z,79.13
2022-10-04T18:50:21.725Z,79.43
2022-10-04T18:53:00.635Z,79.49
2022-10-04T18:55:45.764Z,79.46
2022-10-04T18:58:39.646Z,79.18
2022-10-04T19:01:59.767Z,79.23
2022-10-04T19:04:56.477Z,79.47
2022-10-04T19:07:39.050Z,79.48
2022-10-04T19:10:11.105Z,79.40
2022-10-04T19:12:45.708Z,79.69
2022-10-04T19:15:37.469Z,79.99
2022-10-04T19:18:24.566Z,79.92
2022-10-04T19:21:00.305Z,80.00
2022-10-04T19:23:33.396Z,80.04
2022-10-04T19:26:31.760Z,79.90
2022-10-04T19:29:20.914Z,79.81
2022-10-04T19:31:59.204Z,80.13
2022-10-04T19:34:31.912Z,80.21
2022-10-04T19:37:05.270Z,79.76
2022-10-04T19:39:45.106Z,79.51
2022-10-04T19:42:23.477Z,79.80
2022-10-04T19:45:14.579Z,79.84
2022-10-04T19:47:57.270Z,79.90
2022-10-04T19:50:30.757Z,80.02
2022-10-04T19:53:16.029Z,79.91
2022-10-04T19:55:51.889Z,80.34
2022-10-04T19:58:26.701Z,80.36
2022-10-04T20:00:54.671Z,80.21
2022-10-04T20:03:22.092Z,80.30
2022-10-04T20:05:52.700Z,80.20
2022-10-04T20:08:47.676Z,80.05
2022-10-04T20:11:17.794Z,80.30
2022-10-04T20:13:52.319Z,80.20
2022-10-04T20:16:54.024Z,80.00
2022-10-04T20:19:37.357Z,80.38
2022-10-04T20:22:07.113Z,80.37
2022-10-04T20:24:37.088Z,80.30
2022-10-04T20:27:06.367Z,80.35
2022-10-04T20:29:36.254Z,80.60
2022-10-04T20:32:06.628Z,81.05
2022-10-04T20:34:37.522Z,80.96
2022-10-04T20:37:08.820Z,81.32
2022-10-04T20:39:42.821Z,81.05
2022-10-04T20:42:31.097Z,81.26
2022-10-04T20:45:09.880Z,80.99
2022-10-04T20:47:48.500Z,80.62
2022-10-04T20:50:19.494Z,80.76
2022-10-04T20:52:58.409Z,80.68
2022-10-04T20:55:39.483Z,80.71
2022-10-04T20:58:24.496Z,80.79
2022-10-04T21:00:53.823Z,80.64
2022-10-04T21:03:21.594Z,80.48
2022-10-04T21:06:02.755Z,80.67
2022-10-04T21:08:30.563Z,80.63
2022-10-04T21:11:20.672Z,80.80
2022-10-04T21:13:49.215Z,80.67
2022-10-04T21:16:39.341Z,80.64
2022-10-04T21:19:42.459Z,80.68
2022-10-04T21:22:09.022Z,80.86
2022-10-04T21:24:52.573Z,80.73
2022-10-04T21:27:28.415Z,80.57
2022-10-04T21:29:56.390Z,80.79
2022-10-04T21:32:25.015Z,81.00
2022-10-04T21:34:54.183Z,80.95
2022-10-04T21:37:22.310Z,81.26
2022-10-04T21:39:49.386Z,81.24
2022-10-04T21:42:16.266Z,81.27
2022-10-04T21:44:43.392Z,81.52
2022-10-04T21:47:10.869Z,81.23
2022-10-04T21:49:37.645Z,81.05
2022-10-04T21:52:04.941Z,80.96
2022-10-04T21:54:31.813Z,81.12
2022-10-04T21:56:58.657Z,80.90
2022-10-04T21:59:25.389Z,80.72
2022-10-04T22:01:52.590Z,81.19
2022-10-04T22:04:19.671Z,81.31
2022-10-04T22:06:46.728Z,81.64
2022-10-04T22:09:13.748Z,81.65
2022-10-04T22:11:40.792Z,81.55
2022-10-04T22:14:07.793Z,81.49
2022-10-04T22:16:34.670Z,81.86
2022-10-04T22:19:01.456Z,81.48
2022-10-04T22:21:28.333Z,81.55
2022-10-04T22:23:55.893Z,81.20
2022-10-04T22:26:25.464Z,81.67
2022-10-04T22:28:55.257Z,81.59
2022-10-04T22:31:28.139Z,81.70
2022-10-04T22:33:55.755Z,81.82
2022-10-04T22:36:26.864Z,81.89
2022-10-04T22:38:59.954Z,81.49
2022-10-04T22:41:30.604Z,81.73
2022-10-04T22:44:02.376Z,81.61
2022-10-04T22:46:38.529Z,81.83
2022-10-04T22:49:11.238Z,81.73
2022-10-04T22:51:40.824Z,81.67
2022-10-04T22:54:17.142Z,81.77
2022-10-04T22:56:44.565Z,81.73
2022-10-04T22:59:19.018Z,81.57
2022-10-04T23:01:46.133Z,81.34
2022-10-04T23:04:24.478Z,81.45
2022-10-04T23:06:52.773Z,81.60
2022-10-04T23:09:20.042Z,81.95
2022-10-04T23:11:46.946Z,82.07
2022-10-04T23:14:14.220Z,82.00
2022-10-04T23:16:42.273Z,81.91
2022-10-04T23:19:11.870Z,81.96
2022-10-04T23:21:42.901Z,81.99
2022-10-04T23:24:12.364Z,81.98
2022-10-04T23:26:40.297Z,82.01
2022-10-04T23:29:18.395Z,82.09
2022-10-04T23:31:46.813Z,82.15
2022-10-04T23:34:19.751Z,82.04
2022-10-04T23:36:48.960Z,81.77
2022-10-04T23:39:30.738Z,81.98
2022-10-04T23:41:58.237Z,82.07
2022-10-04T23:44:33.128Z,82.13
2022-10-04T23:47:00.962Z,81.97
2022-10-04T23:49:28.234Z,81.94
2022-10-04T23:52:01.311Z,81.72
2022-10-04T23:54:28.726Z,81.72
2022-10-04T23:56:55.359Z,81.81
2022-10-04T23:59:24.668Z,82.04
